createdAt,value
2019-03-19T00:11:48.681Z,4.13
2019-03-19T00:18:24.215Z,4.07
2019-03-19T00:49:35.091Z,4.57
2019-03-19T01:29:19.000Z,3.33
2019-03-19T02:39:42.075Z,5.37
2019-03-19T02:42:29.810Z,5.40
2019-03-19T02:45:17.537Z,5.37
2019-03-19T02:48:05.017Z,5.63
2019-03-19T02:50:52.677Z,5.87
2019-03-19T02:53:40.040Z,6.30
2019-03-19T02:56:32.999Z,6.40
2019-03-19T02:59:18.708Z,5.77
2019-03-19T03:02:06.666Z,5.60
2019-03-19T03:04:54.041Z,6.23
2019-03-19T03:07:42.284Z,5.63
2019-03-19T03:10:29.882Z,6.17
2019-03-19T03:13:18.918Z,6.40
2019-03-19T03:16:06.757Z,7.40
2019-03-19T03:18:54.522Z,7.27
2019-03-19T03:21:41.975Z,7.07
2019-03-19T03:24:29.875Z,8.17
2019-03-19T03:27:17.707Z,8.10
2019-03-19T03:30:06.134Z,8.33
2019-03-19T03:32:53.456Z,7.67
2019-03-19T03:35:41.812Z,9.37
2019-03-19T03:42:06.301Z,10.63
2019-03-19T03:48:17.598Z,14.20
2019-03-19T03:55:06.159Z,10.70
2019-03-19T04:22:47.840Z,11.20
2019-03-19T04:25:59.873Z,10.87
2019-03-19T04:28:51.168Z,11.10
2019-03-19T04:31:39.006Z,10.73
2019-03-19T04:34:26.739Z,10.03
2019-03-19T04:37:14.232Z,10.10
2019-03-19T04:40:01.920Z,10.43
2019-03-19T04:42:49.627Z,10.70
2019-03-19T04:45:37.336Z,11.73
2019-03-19T04:48:24.688Z,11.07
2019-03-19T04:51:12.561Z,10.70
2019-03-19T04:54:00.061Z,10.73
2019-03-19T04:56:47.835Z,9.53
2019-03-19T04:59:35.337Z,10.67
2019-03-19T05:02:23.108Z,10.70
2019-03-19T05:05:10.659Z,11.17
2019-03-19T05:07:58.398Z,11.20
2019-03-19T05:10:46.036Z,14.37
2019-03-19T05:13:33.814Z,13.33
2019-03-19T05:16:21.572Z,13.07
2019-03-19T05:19:08.865Z,14.27
2019-03-19T05:21:56.202Z,15.20
2019-03-19T05:24:43.947Z,13.87
2019-03-19T05:27:37.238Z,14.90
2019-03-19T05:30:21.071Z,14.33
2019-03-19T05:33:08.849Z,14.17
2019-03-19T05:35:56.456Z,13.00
2019-03-19T05:42:31.757Z,13.20
2019-03-19T05:48:42.016Z,14.63
2019-03-19T06:15:58.816Z,11.13
2019-03-19T06:22:33.905Z,10.50
2019-03-19T06:28:44.897Z,9.87
2019-03-19T06:31:33.138Z,9.93
2019-03-19T06:34:20.953Z,11.87
2019-03-19T06:37:08.392Z,10.80
2019-03-19T06:43:39.970Z,10.60
2019-03-19T06:46:27.695Z,13.03
2019-03-19T06:49:17.514Z,11.30
2019-03-19T06:52:05.376Z,13.67
2019-03-19T06:55:12.186Z,13.60
2019-03-19T06:58:34.326Z,12.87
2019-03-19T07:02:06.583Z,14.93
2019-03-19T07:05:29.729Z,15.07
2019-03-19T07:08:19.813Z,16.20
2019-03-19T07:15:16.804Z,16.53
2019-03-19T07:18:56.783Z,14.10
2019-03-19T07:22:18.975Z,14.70
2019-03-19T07:26:05.295Z,17.43
2019-03-19T07:28:53.605Z,14.97
2019-03-19T07:31:54.220Z,17.70
2019-03-19T07:34:55.406Z,15.60
2019-03-19T07:52:29.339Z,16.63
2019-03-19T07:59:03.665Z,15.60
2019-03-19T08:09:25.142Z,14.47
2019-03-19T08:15:48.365Z,14.50
2019-03-19T08:33:07.907Z,15.50
2019-03-19T08:35:55.327Z,16.40
2019-03-19T08:38:42.917Z,16.17
2019-03-19T08:41:30.871Z,18.53
2019-03-19T08:44:27.496Z,19.10
2019-03-19T08:51:08.299Z,16.67
2019-03-19T08:57:42.756Z,16.43
2019-03-19T09:04:18.022Z,18.40
2019-03-19T09:10:54.322Z,17.73
2019-03-19T09:31:31.713Z,17.63
2019-03-19T09:38:06.917Z,16.60
2019-03-19T09:44:42.208Z,17.10
2019-03-19T09:51:18.167Z,15.47
2019-03-19T09:57:53.797Z,14.70
2019-03-19T10:04:04.644Z,15.03
2019-03-19T10:10:40.353Z,13.53
2019-03-19T10:17:16.022Z,14.00
2019-03-19T10:23:51.653Z,11.80
2019-03-19T10:30:27.660Z,11.27
2019-03-19T10:37:15.861Z,10.63
2019-03-19T10:43:51.695Z,7.77
2019-03-19T11:11:24.116Z,7.37
2019-03-19T11:14:42.163Z,7.83
2019-03-19T11:17:30.290Z,7.03
2019-03-19T11:20:17.810Z,5.27
2019-03-19T11:23:05.226Z,6.27
2019-03-19T11:25:54.673Z,6.90
2019-03-19T11:28:42.511Z,6.67
2019-03-19T11:31:30.582Z,6.87
2019-03-19T11:34:18.183Z,6.90
2019-03-19T11:48:04.193Z,4.70
2019-03-19T11:58:45.452Z,3.90
2019-03-19T12:05:21.660Z,4.30
2019-03-19T12:11:57.402Z,4.43
2019-03-19T12:18:32.144Z,4.27
2019-03-19T12:25:19.885Z,4.33
2019-03-19T12:28:45.498Z,4.03
2019-03-19T12:31:33.307Z,4.80
2019-03-19T12:34:21.505Z,5.17
2019-03-19T12:37:09.363Z,4.37
2019-03-19T12:39:56.747Z,3.97
2019-03-19T12:42:44.428Z,4.13
2019-03-19T12:45:32.102Z,3.60
2019-03-19T12:48:20.081Z,3.93
2019-03-19T12:51:07.745Z,3.80
2019-03-19T12:53:55.650Z,3.20
2019-03-19T12:56:43.718Z,2.80
2019-03-19T12:59:31.379Z,2.50
2019-03-19T13:02:19.188Z,2.20
2019-03-19T13:05:07.007Z,3.67
2019-03-19T13:07:55.204Z,3.60
2019-03-19T13:10:42.898Z,2.83
2019-03-19T13:13:30.690Z,2.80
2019-03-19T13:16:18.361Z,3.47
2019-03-19T13:19:06.719Z,2.50
2019-03-19T13:21:54.291Z,2.67
2019-03-19T13:24:42.264Z,2.70
2019-03-19T13:27:30.108Z,2.83
2019-03-19T13:30:19.159Z,2.73
2019-03-19T13:33:09.919Z,2.83
2019-03-19T13:39:57.881Z,2.70
2019-03-19T13:46:32.861Z,2.50
2019-03-19T13:53:20.450Z,2.30
2019-03-19T14:00:09.606Z,2.10
2019-03-19T14:06:44.961Z,2.40
2019-03-19T14:28:23.525Z,2.60
2019-03-19T14:31:11.131Z,2.40
2019-03-19T14:33:58.968Z,2.23
2019-03-19T14:36:46.631Z,2.60
2019-03-19T14:39:34.261Z,2.77
2019-03-19T14:42:21.851Z,2.50
2019-03-19T14:45:09.872Z,2.67
2019-03-19T14:47:57.762Z,2.57
2019-03-19T14:50:45.456Z,2.60
2019-03-19T14:53:33.218Z,2.67
2019-03-19T14:56:20.862Z,2.20
2019-03-19T14:59:08.885Z,2.20
2019-03-19T15:01:56.718Z,2.37
2019-03-19T15:04:44.073Z,2.30
2019-03-19T15:07:32.222Z,2.50
2019-03-19T15:10:20.037Z,2.60
2019-03-19T15:13:07.670Z,2.40
2019-03-19T15:15:55.793Z,3.27
2019-03-19T15:18:43.595Z,2.60
2019-03-19T15:21:31.280Z,3.07
2019-03-19T15:24:19.221Z,2.40
2019-03-19T15:27:06.757Z,2.87
2019-03-19T15:29:54.506Z,3.00
2019-03-19T15:32:42.304Z,2.70
2019-03-19T15:39:17.154Z,2.40
2019-03-19T15:45:28.671Z,2.07
2019-03-19T15:52:03.928Z,1.83
2019-03-19T15:58:40.135Z,1.97
2019-03-19T16:05:27.768Z,2.10
2019-03-19T16:12:15.595Z,2.23
2019-03-19T16:29:47.833Z,1.63
2019-03-19T16:32:36.000Z,1.80
2019-03-19T16:35:42.717Z,1.90
2019-03-19T16:38:51.025Z,1.50
2019-03-19T16:42:12.863Z,1.90
2019-03-19T16:45:21.054Z,1.70
2019-03-19T16:48:25.782Z,1.90
2019-03-19T16:51:33.057Z,1.97
2019-03-19T16:54:45.286Z,1.90
2019-03-19T16:58:05.087Z,2.30
2019-03-19T17:01:31.649Z,2.07
2019-03-19T17:04:42.876Z,2.00
2019-03-19T17:07:53.433Z,1.97
2019-03-19T17:10:59.017Z,2.27
2019-03-19T17:13:59.666Z,2.40
2019-03-19T17:16:49.121Z,2.20
2019-03-19T17:19:37.607Z,2.70
2019-03-19T17:22:25.348Z,2.47
2019-03-19T17:25:14.307Z,2.30
2019-03-19T17:28:02.337Z,2.30
2019-03-19T17:30:50.292Z,2.13
2019-03-19T17:47:36.092Z,2.30
2019-03-19T17:53:56.854Z,2.10
2019-03-19T18:21:54.050Z,1.80
2019-03-19T18:24:41.474Z,1.57
2019-03-19T18:27:29.445Z,2.00
2019-03-19T18:30:18.043Z,1.90
2019-03-19T18:33:06.115Z,2.00
2019-03-19T18:35:56.275Z,2.07
2019-03-19T18:38:43.673Z,3.20
2019-03-19T18:41:31.339Z,2.10
2019-03-19T18:44:19.067Z,2.50
2019-03-19T18:47:07.611Z,2.20
2019-03-19T18:49:55.258Z,2.40
2019-03-19T18:52:42.851Z,1.83
2019-03-19T18:55:31.139Z,2.00
2019-03-19T18:58:18.780Z,2.37
2019-03-19T19:01:06.692Z,1.80
2019-03-19T19:03:54.467Z,1.73
2019-03-19T19:06:42.261Z,2.03
2019-03-19T19:09:29.946Z,2.00
2019-03-19T19:12:18.748Z,2.13
2019-03-19T19:15:09.718Z,2.30
2019-03-19T19:17:57.836Z,2.73
2019-03-19T19:20:46.699Z,1.73
2019-03-19T19:23:34.493Z,2.20
2019-03-19T19:26:22.680Z,2.00
2019-03-19T19:29:10.724Z,2.10
2019-03-19T19:39:27.613Z,2.27
2019-03-19T19:48:05.054Z,1.87
2019-03-19T19:50:52.847Z,2.30
2019-03-19T19:53:40.637Z,2.00
2019-03-19T19:56:28.226Z,2.00
2019-03-19T19:59:15.679Z,2.07
2019-03-19T20:02:03.751Z,2.33
2019-03-19T20:05:02.337Z,2.50
2019-03-19T20:07:41.061Z,3.40
2019-03-19T20:10:28.784Z,2.40
2019-03-19T20:13:16.733Z,2.43
2019-03-19T20:16:04.781Z,2.30
2019-03-19T20:25:43.893Z,3.10
2019-03-19T20:33:37.598Z,2.60
2019-03-19T20:36:50.427Z,2.80
2019-03-19T20:39:38.249Z,2.67
2019-03-19T20:42:27.064Z,2.40
2019-03-19T20:45:15.201Z,2.17
2019-03-19T20:48:03.135Z,2.30
2019-03-19T20:50:50.898Z,2.60
2019-03-19T20:53:38.924Z,2.90
2019-03-19T20:56:26.390Z,2.50
2019-03-19T21:01:52.684Z,2.70
2019-03-19T21:04:40.470Z,2.50
2019-03-19T21:07:28.459Z,2.73
2019-03-19T23:00:15.583Z,3.40
2019-03-19T23:03:03.163Z,3.10
2019-03-19T23:05:50.808Z,3.43
2019-03-19T23:08:38.361Z,3.50
2019-03-19T23:11:26.495Z,3.17
2019-03-19T23:14:14.266Z,3.97
2019-03-19T23:17:02.694Z,3.40
2019-03-19T23:19:50.395Z,4.43
2019-03-19T23:22:38.111Z,4.70
2019-03-19T23:25:26.144Z,3.70
2019-03-19T23:28:14.197Z,3.60
2019-03-19T23:31:01.991Z,3.30
2019-03-19T23:33:49.495Z,3.47
2019-03-19T23:36:37.430Z,3.80
2019-03-19T23:39:25.202Z,3.90
2019-03-19T23:42:12.594Z,4.10
2019-03-19T23:45:00.371Z,3.67
2019-03-19T23:47:47.996Z,3.57
2019-03-19T23:50:35.867Z,3.40
2019-03-19T23:53:23.410Z,3.33
2019-03-19T23:56:10.772Z,3.60
2019-03-19T23:58:58.748Z,3.43
